메인 페이지
METAR-TAF:

METAR-TAF

공항 :

하르툼 국제공항

하르툼, 수단

위도: 15-36N, 경도: 032-33E, 고도: 382m

현재 날씨관측

예보는 13분 전, 22:30시(UTC)에 발표되었습니다.
11kt
온도 31°C
습도 31%
기압 1008 hPa
시정 10km 이상
1500m 미만 상공 구름 및 적란운 없음

METAR: HSSS 182230Z 27011KT CAVOK 31/12 Q1008 NOSIG

시각: 01:43 (22:43 UTC)

예보

예보는 5 시간 43분 전, 17:00시(UTC)에 발표되었습니다.
예보 대상 시간: 18일 18시부터 19일 24시까지 (UTC)
서남서10kt, 순간 최대 풍속 20kt
시정 10km 이상
고도 4000ft 상공 구름 조금
고도 14000ft 상공 구름 보통
일시적
18일 18시부터 18일 22시까지 (UTC)
시정: 5000m
고도 4500ft 상공 구름 조금, 적란운.
뇌우, 비

TAF: HSSS 181700Z 1818/1924 24010G20KT 9999 FEW040 SCT140 TEMPO 1818/1822 5000 TSRA FEW045CB

4,000개 이상의 공항 관측 자료 및 예보 (METAR 및 TAF 보고).

지도상에서 검색 가능한 기상관측소가 노란 점과 빨간 점으로 표시되어 있습니다.

기상관측소 명을 보려면 표시 위로 마우스를 이동하세요.

날씨 관측과 예보를 보려면 클릭하세요.

지도 변경 : 확대하려면 엑스 표시가 있는 녹색 버튼, 축소하려면 빼기 표시가 있는 녹색 버튼, 다음 페이지의 지도를 보려면 녹색 화살표를 클릭하세요.


METAR-TAF: